Time;durP1;ratioP1;P1;durP2;ratioP2;P2;SDS_P1;SDS_P2;PMS_P1;PMS_P2;Temp;Humidity;BMP_temperature;BMP_pressure;BME280_temperature;BME280_humidity;BME280_pressure;Samples;Min_cycle;Max_cycle;Signal;HPM_P1;HPM_P2
2022/10/11 00:01:17;;;;;;;0.00;0.00;;;;;;;14.07;100.00;99218.84;4840227;29;20673;-61
2022/10/11 00:03:44;;;;;;;0.00;0.00;;;;;;;14.08;100.00;99220.47;4840928;29;20252;-61
2022/10/11 00:06:11;;;;;;;0.00;0.00;;;;;;;14.05;100.00;99221.63;4840844;29;20293;-61
2022/10/11 00:08:37;;;;;;;0.00;0.00;;;;;;;14.06;100.00;99220.66;4839231;29;20260;-61
2022/10/11 00:11:06;;;;;;;0.00;0.00;;;;;;;14.08;100.00;99226.56;4840789;29;20294;-61
2022/10/11 00:13:33;;;;;;;0.00;0.00;;;;;;;14.11;100.00;99228.03;4838848;29;20300;-61
2022/10/11 00:16:07;;;;;;;0.00;0.00;;;;;;;14.12;100.00;99227.06;4842121;29;20238;-61
2022/10/11 00:18:33;;;;;;;0.00;0.00;;;;;;;14.14;100.00;99222.47;4839667;29;20240;-61
2022/10/11 00:21:01;;;;;;;0.00;0.00;;;;;;;14.14;100.00;99230.34;4846517;29;20288;-61
2022/10/11 00:23:28;;;;;;;0.00;0.00;;;;;;;14.14;100.00;99223.31;4834150;29;20272;-61
2022/10/11 00:25:57;;;;;;;0.00;0.00;;;;;;;14.16;100.00;99228.38;4844160;29;20283;-61
2022/10/11 00:28:24;;;;;;;0.00;0.00;;;;;;;14.15;100.00;99221.50;4843798;29;20247;-61
2022/10/11 00:30:50;;;;;;;0.00;0.00;;;;;;;14.16;100.00;99225.75;4841759;29;20296;-61
2022/10/11 00:33:18;;;;;;;0.00;0.00;;;;;;;14.17;100.00;99224.78;4839318;29;20314;-61
2022/10/11 00:35:45;;;;;;;0.00;0.00;;;;;;;14.22;100.00;99227.75;4841249;29;20581;-61
2022/10/11 00:38:13;;;;;;;0.00;0.00;;;;;;;14.16;100.00;99226.59;4845849;29;20588;-61
2022/10/11 00:40:40;;;;;;;0.00;0.00;;;;;;;14.14;100.00;99225.09;4836713;29;20635;-61
2022/10/11 00:43:14;;;;;;;0.00;0.00;;;;;;;14.13;100.00;99233.94;4838491;29;20304;-61
2022/10/11 00:46:00;;;;;;;0.00;0.00;;;;;;;14.14;100.00;99230.34;4842695;29;20300;-61
2022/10/11 00:48:36;;;;;;;0.00;0.00;;;;;;;14.12;100.00;99230.53;4843866;29;20299;-61
2022/10/11 00:51:06;;;;;;;0.00;0.00;;;;;;;14.14;100.00;99219.84;4845253;29;20326;-61
2022/10/11 00:53:33;;;;;;;0.00;0.00;;;;;;;14.15;100.00;99224.94;4844300;29;20292;-61
2022/10/11 00:56:05;;;;;;;0.00;0.00;;;;;;;14.12;100.00;99227.91;4845470;29;20339;-61
2022/10/11 00:58:34;;;;;;;0.00;0.00;;;;;;;14.12;100.00;99221.81;4834595;29;20239;-61
2022/10/11 01:01:01;;;;;;;0.00;0.00;;;;;;;14.16;100.00;99220.50;4841170;29;20231;-61
2022/10/11 01:03:31;;;;;;;0.00;0.00;;;;;;;14.14;100.00;99232.97;4841095;29;20246;-61
2022/10/11 01:05:57;;;;;;;0.00;0.00;;;;;;;14.14;100.00;99235.59;4845992;29;20248;-61
2022/10/11 01:08:25;;;;;;;0.00;0.00;;;;;;;14.14;100.00;99243.47;4838020;29;20230;-61
2022/10/11 01:10:52;;;;;;;0.00;0.00;;;;;;;14.12;100.00;99237.56;4855990;29;20664;-61
2022/10/11 01:13:33;;;;;;;0.00;0.00;;;;;;;14.14;100.00;99246.94;4831761;29;20744;-61
2022/10/11 01:16:09;;;;;;;0.00;0.00;;;;;;;14.14;100.00;99240.84;4836377;29;20247;-61
2022/10/11 01:18:47;;;;;;;0.00;0.00;;;;;;;14.13;100.00;99240.03;4839203;29;20243;-61
2022/10/11 01:21:21;;;;;;;0.00;0.00;;;;;;;14.16;100.00;99236.25;4839990;29;20812;-61
2022/10/11 01:24:34;;;;;;;0.00;0.00;;;;;;;14.14;100.00;99240.84;4840010;29;20321;-61
2022/10/11 01:27:24;;;;;;;0.00;0.00;;;;;;;14.12;100.00;99238.41;4834982;29;20333;-61
2022/10/11 01:30:03;;;;;;;0.00;0.00;;;;;;;14.10;100.00;99235.09;4840139;29;20335;-61
2022/10/11 01:32:38;;;;;;;0.00;0.00;;;;;;;14.08;100.00;99230.97;4837499;29;20243;-61
2022/10/11 01:35:10;;;;;;;0.00;0.00;;;;;;;14.09;100.00;99237.88;4837193;29;20697;-61
2022/10/11 01:37:41;;;;;;;0.00;0.00;;;;;;;14.10;100.00;99231.66;4839091;29;20235;-61
2022/10/11 01:40:12;;;;;;;0.00;0.00;;;;;;;14.12;100.00;99227.91;4840372;29;20243;-61
2022/10/11 01:42:41;;;;;;;0.00;0.00;;;;;;;14.13;100.00;99231.31;4834053;29;20241;-61
2022/10/11 01:45:13;;;;;;;0.00;0.00;;;;;;;14.11;100.00;99215.75;4841152;29;20243;-61
2022/10/11 01:47:41;;;;;;;0.00;0.00;;;;;;;14.11;100.00;99233.28;4841669;29;20334;-61
2022/10/11 01:50:37;;;;;;;0.00;0.00;;;;;;;14.07;100.00;99232.78;4842249;29;20234;-61
2022/10/11 01:53:15;;;;;;;0.00;0.00;;;;;;;14.08;100.00;99230.97;4838199;29;20238;-61
2022/10/11 01:55:49;;;;;;;0.00;0.00;;;;;;;14.08;100.00;99231.81;4838693;29;20301;-61
2022/10/11 01:58:30;;;;;;;0.00;0.00;;;;;;;14.07;100.00;99238.03;4841647;29;20324;-61
2022/10/11 02:01:06;;;;;;;0.00;0.00;;;;;;;14.08;100.00;99229.19;4840924;29;21243;-61
2022/10/11 02:03:42;;;;;;;0.00;0.00;;;;;;;14.08;100.00;99237.06;4839399;29;20236;-61
2022/10/11 02:06:12;;;;;;;0.00;0.00;;;;;;;14.07;100.00;99237.22;4846885;29;20243;-61
2022/10/11 02:08:48;;;;;;;0.00;0.00;;;;;;;14.09;100.00;99237.88;4840442;29;20242;-61
2022/10/11 02:11:20;;;;;;;0.00;0.00;;;;;;;14.09;100.00;99236.09;4840329;29;20231;-61
2022/10/11 02:13:54;;;;;;;0.00;0.00;;;;;;;14.08;100.00;99239.69;4841583;29;20728;-61
2022/10/11 02:16:30;;;;;;;0.00;0.00;;;;;;;14.07;100.00;99240.66;4842203;29;20243;-61
2022/10/11 02:19:02;;;;;;;0.00;0.00;;;;;;;14.06;100.00;99239.03;4839756;29;20292;-61
2022/10/11 02:21:33;;;;;;;0.00;0.00;;;;;;;14.03;100.00;99240.16;4839002;29;20235;-61
2022/10/11 02:24:05;;;;;;;0.00;0.00;;;;;;;14.01;100.00;99230.81;4840432;29;20230;-61
2022/10/11 02:26:34;;;;;;;0.00;0.00;;;;;;;14.01;100.00;99233.44;4837381;29;20239;-61
2022/10/11 02:29:04;;;;;;;0.00;0.00;;;;;;;14.01;100.00;99234.22;4842807;29;20230;-61
2022/10/11 02:31:33;;;;;;;0.00;0.00;;;;;;;14.03;100.00;99234.91;4838447;29;20296;-61
2022/10/11 02:34:09;;;;;;;0.00;0.00;;;;;;;14.02;100.00;99232.44;4841956;29;20290;-61
2022/10/11 02:36:42;;;;;;;0.00;0.00;;;;;;;14.05;100.00;99224.25;4840231;29;20294;-61
2022/10/11 02:39:13;;;;;;;0.00;0.00;;;;;;;14.03;100.00;99232.28;4841293;29;20762;-61
2022/10/11 02:41:42;;;;;;;0.00;0.00;;;;;;;14.05;100.00;99226.03;4837414;29;20238;-61
2022/10/11 02:44:13;;;;;;;0.00;0.00;;;;;;;14.02;100.00;99235.88;4843991;29;20239;-61
2022/10/11 02:46:42;;;;;;;0.00;0.00;;;;;;;14.02;100.00;99229.81;4843589;29;20741;-61
2022/10/11 02:49:12;;;;;;;0.00;0.00;;;;;;;14.02;100.00;99235.06;4843730;29;20249;-61
2022/10/11 02:51:38;;;;;;;0.00;0.00;;;;;;;14.03;100.00;99234.09;4843655;29;20276;-61
2022/10/11 02:54:06;;;;;;;0.00;0.00;;;;;;;14.01;100.00;99233.44;4842618;29;20649;-61
2022/10/11 02:56:32;;;;;;;0.00;0.00;;;;;;;14.00;100.00;99227.34;4840359;29;20264;-61
2022/10/11 02:58:59;;;;;;;0.00;0.00;;;;;;;14.00;100.00;99235.22;4845411;29;20298;-61
2022/10/11 03:01:25;;;;;;;0.00;0.00;;;;;;;14.01;100.00;99230.81;5053019;23;20333;-55
2022/10/11 03:03:52;;;;;;;0.00;0.00;;;;;;;13.96;100.00;99228.63;4873066;29;20276;-56
2022/10/11 03:06:20;;;;;;;0.00;0.00;;;;;;;13.96;100.00;99239.13;4872701;29;20243;-54
2022/10/11 03:08:47;;;;;;;0.00;0.00;;;;;;;13.95;100.00;99231.44;4876262;29;20608;-56
2022/10/11 03:11:14;;;;;;;0.00;0.00;;;;;;;14.02;100.00;99238.50;4876756;29;20236;-55
2022/10/11 03:13:40;;;;;;;0.00;0.00;;;;;;;14.02;100.00;99243.75;4871928;29;20241;-54
2022/10/11 03:16:07;;;;;;;0.00;0.00;;;;;;;14.09;100.00;99246.59;4874026;29;20592;-55
2022/10/11 03:18:33;;;;;;;0.00;0.00;;;;;;;14.09;100.00;99240.50;4873065;29;20302;-53
2022/10/11 03:21:00;;;;;;;0.00;0.00;;;;;;;13.99;100.00;99241.44;4870031;29;20240;-55
2022/10/11 03:23:28;;;;;;;0.00;0.00;;;;;;;13.99;100.00;99243.25;4865932;29;20282;-56
2022/10/11 03:25:54;;;;;;;0.00;0.00;;;;;;;13.99;100.00;99245.88;4874686;29;20300;-55
2022/10/11 03:28:21;;;;;;;0.00;0.00;;;;;;;13.96;100.00;99244.38;4873532;29;20241;-55
2022/10/11 03:30:48;;;;;;;0.00;0.00;;;;;;;13.96;100.00;99247.00;4868837;29;20249;-55
2022/10/11 03:33:16;;;;;;;0.00;0.00;;;;;;;13.95;100.00;99250.63;4873963;29;20295;-53
2022/10/11 03:35:44;;;;;;;0.00;0.00;;;;;;;13.96;100.00;99248.81;4872977;29;20348;-53
2022/10/11 03:38:12;;;;;;;0.00;0.00;;;;;;;13.96;100.00;99244.38;4871385;29;20239;-56
2022/10/11 03:40:40;;;;;;;0.00;0.00;;;;;;;13.93;100.00;99246.50;4870921;29;20236;-56
2022/10/11 03:43:07;;;;;;;0.00;0.00;;;;;;;13.93;100.00;99238.63;4871498;29;20319;-56
2022/10/11 03:45:33;;;;;;;0.00;0.00;;;;;;;13.91;100.00;99240.59;4866284;29;20295;-57
2022/10/11 03:48:00;;;;;;;0.00;0.00;;;;;;;13.86;100.00;99244.50;4873979;29;20230;-54
2022/10/11 03:50:26;;;;;;;0.00;0.00;;;;;;;13.86;100.00;99241.88;4870765;29;20331;-55
2022/10/11 03:52:53;;;;;;;0.00;0.00;;;;;;;13.85;100.00;99242.03;4877756;29;20291;-54
2022/10/11 03:55:19;;;;;;;0.00;0.00;;;;;;;13.80;100.00;99245.13;4880305;29;20298;-56
2022/10/11 03:57:47;;;;;;;0.00;0.00;;;;;;;13.77;100.00;99252.50;4878176;29;20294;-56
2022/10/11 04:00:14;;;;;;;0.00;0.00;;;;;;;13.69;100.00;99246.25;4882159;29;20332;-54
2022/10/11 04:02:41;;;;;;;0.00;0.00;;;;;;;13.63;100.00;99248.66;4868479;29;20303;-56
2022/10/11 04:05:08;;;;;;;0.00;0.00;;;;;;;13.60;100.00;99251.59;4871008;29;20321;-56
2022/10/11 04:07:35;;;;;;;0.00;0.00;;;;;;;13.54;100.00;99253.03;4874663;29;20249;-56
2022/10/11 04:10:01;;;;;;;0.00;0.00;;;;;;;13.49;100.00;99247.44;4874993;29;20241;-55
2022/10/11 04:12:28;;;;;;;0.00;0.00;;;;;;;13.43;100.00;99251.47;4870626;29;20242;-55
2022/10/11 04:14:56;;;;;;;0.00;0.00;;;;;;;13.41;100.00;99245.53;4879327;29;20302;-55
2022/10/11 04:17:22;;;;;;;0.00;0.00;;;;;;;13.36;100.00;99248.63;4875426;29;20238;-54
2022/10/11 04:19:49;;;;;;;0.00;0.00;;;;;;;13.26;100.00;99243.47;4871054;29;20246;-55
2022/10/11 04:22:16;;;;;;;0.00;0.00;;;;;;;13.17;100.00;99241.78;4875018;29;20242;-55
2022/10/11 04:24:42;;;;;;;0.00;0.00;;;;;;;13.04;100.00;99239.53;4874507;29;20312;-56
2022/10/11 04:27:09;;;;;;;0.00;0.00;;;;;;;12.99;100.00;99239.16;4876361;29;20873;-56
2022/10/11 04:29:35;;;;;;;0.00;0.00;;;;;;;12.87;100.00;99240.38;4869407;29;20232;-53
2022/10/11 04:32:03;;;;;;;0.00;0.00;;;;;;;12.72;100.00;99245.31;4876985;29;20779;-55
2022/10/11 04:34:30;;;;;;;0.00;0.00;;;;;;;12.57;100.00;99248.44;4872677;29;20789;-56
2022/10/11 04:36:57;;;;;;;0.00;0.00;;;;;;;12.44;100.00;99251.44;4871365;29;20718;-56
2022/10/11 04:39:23;;;;;;;0.00;0.00;;;;;;;12.32;100.00;99256.03;4873931;29;20233;-57
2022/10/11 04:41:50;;;;;;;0.00;0.00;;;;;;;12.24;100.00;99256.78;4884179;29;20244;-54
2022/10/11 04:44:16;;;;;;;0.00;0.00;;;;;;;12.21;100.00;99256.22;4866729;29;20282;-57
2022/10/11 04:46:43;;;;;;;0.00;0.00;;;;;;;12.24;100.00;99255.94;4864246;29;20237;-53
2022/10/11 04:49:11;;;;;;;0.00;0.00;;;;;;;12.27;100.00;99257.47;4875441;29;20243;-57
2022/10/11 04:51:37;;;;;;;0.00;0.00;;;;;;;12.21;100.00;99256.22;4871638;29;20636;-56
2022/10/11 04:54:04;;;;;;;0.00;0.00;;;;;;;12.29;100.00;99252.91;4871391;29;20311;-55
2022/10/11 04:56:31;;;;;;;0.00;0.00;;;;;;;12.29;100.00;99260.75;4879480;29;20287;-55
2022/10/11 04:58:57;;;;;;;0.00;0.00;;;;;;;12.47;100.00;99266.03;4875278;29;20320;-56
2022/10/11 05:01:24;;;;;;;0.00;0.00;;;;;;;12.48;100.00;99272.91;4873034;29;20244;-56
2022/10/11 05:03:50;;;;;;;0.00;0.00;;;;;;;12.40;100.00;99269.22;4872057;29;20580;-57
2022/10/11 05:06:19;;;;;;;0.00;0.00;;;;;;;12.38;100.00;99271.16;4880261;29;20329;-57
2022/10/11 05:08:46;;;;;;;0.00;0.00;;;;;;;12.44;100.00;99271.53;4868015;29;20233;-57
2022/10/11 05:11:14;;;;;;;0.00;0.00;;;;;;;12.35;100.00;99281.13;4876619;29;20241;-57
2022/10/11 05:13:41;;;;;;;0.00;0.00;;;;;;;12.42;100.00;99282.19;4872116;29;20236;-57
2022/10/11 05:16:08;;;;;;;0.00;0.00;;;;;;;12.47;100.00;99286.97;4869677;29;20709;-58
2022/10/11 05:18:35;;;;;;;0.00;0.00;;;;;;;12.38;100.00;99284.25;4868455;29;20267;-57
2022/10/11 05:21:03;;;;;;;0.00;0.00;;;;;;;12.30;100.00;99284.16;4880188;29;20260;-58
2022/10/11 05:23:33;;;;;;;0.00;0.00;;;;;;;12.25;100.00;99286.38;4872613;29;20239;-57
2022/10/11 05:26:00;;;;;;;0.00;0.00;;;;;;;12.26;100.00;99282.81;4873541;29;20236;-57
2022/10/11 05:28:27;;;;;;;0.00;0.00;;;;;;;12.24;100.00;99288.19;4867180;29;20280;-57
2022/10/11 05:30:54;;;;;;;0.00;0.00;;;;;;;12.28;100.00;99295.75;4873588;29;20365;-57
2022/10/11 05:33:22;;;;;;;0.00;0.00;;;;;;;12.30;100.00;99292.00;4872883;29;20236;-56
2022/10/11 05:35:48;;;;;;;0.00;0.00;;;;;;;12.21;100.00;99290.25;4876378;29;20244;-56
2022/10/11 05:38:17;;;;;;;0.00;0.00;;;;;;;12.18;100.00;99295.81;4865409;29;20289;-53
2022/10/11 05:40:45;;;;;;;0.00;0.00;;;;;;;12.15;100.00;99296.09;4870879;29;20785;-56
2022/10/11 05:43:11;;;;;;;0.00;0.00;;;;;;;12.09;100.00;99297.50;4875166;29;20240;-56
2022/10/11 05:45:40;;;;;;;0.00;0.00;;;;;;;12.04;100.00;99302.31;4866885;29;20244;-54
2022/10/11 05:48:07;;;;;;;0.00;0.00;;;;;;;11.96;100.00;99301.22;4867372;29;20247;-56
2022/10/11 05:50:35;;;;;;;0.00;0.00;;;;;;;11.92;100.00;99299.03;4871483;29;20232;-55
2022/10/11 05:53:01;;;;;;;0.00;0.00;;;;;;;11.88;100.00;99301.09;4878020;29;20723;-53
2022/10/11 05:55:28;;;;;;;0.00;0.00;;;;;;;11.89;100.00;99304.56;4870432;29;20236;-54
2022/10/11 05:57:57;;;;;;;0.00;0.00;;;;;;;11.84;100.00;99299.75;4876940;29;20247;-55
2022/10/11 06:00:24;;;;;;;0.00;0.00;;;;;;;11.89;100.00;99307.97;4875364;29;20236;-55
2022/10/11 06:02:51;;;;;;;0.00;0.00;;;;;;;11.96;100.00;99314.31;4871991;29;20250;-53
2022/10/11 06:05:18;;;;;;;0.00;0.00;;;;;;;12.01;100.00;99315.69;4875602;29;20726;-55
2022/10/11 06:07:44;;;;;;;0.00;0.00;;;;;;;12.01;100.00;99320.94;4862959;29;20257;-56
2022/10/11 06:10:11;;;;;;;0.00;0.00;;;;;;;12.02;100.00;99317.34;4861738;29;20654;-55
2022/10/11 06:12:38;;;;;;;0.00;0.00;;;;;;;11.99;100.00;99314.97;4865256;29;20272;-56
2022/10/11 06:15:09;;;;;;;0.00;0.00;;;;;;;11.96;100.00;99316.91;4876851;29;20308;-55
2022/10/11 06:17:35;;;;;;;0.00;0.00;;;;;;;12.00;100.00;99327.97;4867620;29;20297;-54
2022/10/11 06:20:02;;;;;;;0.00;0.00;;;;;;;12.08;100.00;99327.25;4867100;29;20702;-52
2022/10/11 06:22:29;;;;;;;0.00;0.00;;;;;;;12.13;100.00;99332.88;4875194;29;20247;-54
2022/10/11 06:24:55;;;;;;;0.00;0.00;;;;;;;12.23;100.00;99335.44;4876290;29;20742;-56
2022/10/11 06:27:22;;;;;;;0.00;0.00;;;;;;;12.33;100.00;99335.41;4876973;29;20668;-55
2022/10/11 06:29:49;;;;;;;0.00;0.00;;;;;;;12.44;100.00;99337.84;4859289;29;20239;-56
2022/10/11 06:32:19;;;;;;;0.00;0.00;;;;;;;12.61;100.00;99338.84;4870690;29;20254;-56
2022/10/11 06:34:46;;;;;;;0.00;0.00;;;;;;;12.75;100.00;99342.75;4868052;29;20770;-55
2022/10/11 06:37:13;;;;;;;0.00;0.00;;;;;;;12.91;100.00;99344.75;4869358;29;20230;-55
2022/10/11 06:39:39;;;;;;;0.00;0.00;;;;;;;13.05;100.00;99350.44;4872016;29;20236;-55
2022/10/11 06:42:06;;;;;;;0.00;0.00;;;;;;;13.21;100.00;99352.38;4875762;29;20245;-56
2022/10/11 06:44:34;;;;;;;0.00;0.00;;;;;;;13.22;100.00;99354.03;4883903;29;20242;-52
2022/10/11 06:47:00;;;;;;;0.00;0.00;;;;;;;13.25;100.00;99358.97;4870889;29;20241;-55
2022/10/11 06:49:28;;;;;;;0.00;0.00;;;;;;;13.32;100.00;99362.66;4874654;29;20638;-53
2022/10/11 06:51:55;;;;;;;0.00;0.00;;;;;;;13.33;100.00;99360.84;4875534;29;20228;-55
2022/10/11 06:54:21;;;;;;;0.00;0.00;;;;;;;13.45;100.00;99362.28;4864435;29;20292;-54
2022/10/11 06:56:51;;;;;;;0.00;0.00;;;;;;;13.46;100.00;99366.56;4873395;29;20238;-54
2022/10/11 06:59:18;;;;;;;0.00;0.00;;;;;;;13.53;100.00;99372.03;4871726;29;20236;-53
2022/10/11 07:01:44;;;;;;;0.00;0.00;;;;;;;13.54;100.00;99379.75;4868989;29;20245;-57
2022/10/11 07:04:11;;;;;;;0.00;0.00;;;;;;;13.61;100.00;99379.13;4879276;29;20555;-54
2022/10/11 07:06:41;;;;;;;0.00;0.00;;;;;;;13.69;100.00;99385.28;4874346;29;20970;-54
2022/10/11 07:09:08;;;;;;;0.00;0.00;;;;;;;13.75;100.00;99383.03;4874258;29;20324;-57
2022/10/11 07:11:35;;;;;;;0.00;0.00;;;;;;;13.82;100.00;99397.16;4868912;29;20326;-55
2022/10/11 07:14:06;;;;;;;0.00;0.00;;;;;;;13.87;100.00;99393.13;4877719;29;20237;-54
2022/10/11 07:16:34;;;;;;;0.00;0.00;;;;;;;13.98;100.00;99396.47;4869026;29;20229;-57
2022/10/11 07:19:01;;;;;;;0.00;0.00;;;;;;;14.12;100.00;99406.41;4870407;29;20236;-55
2022/10/11 07:21:30;;;;;;;0.00;0.00;;;;;;;14.15;99.77;99406.09;4866896;29;20245;-56
2022/10/11 07:23:58;;;;;;;0.00;0.00;;;;;;;14.25;98.92;99405.97;4872040;29;20690;-55
2022/10/11 07:26:25;;;;;;;0.00;0.00;;;;;;;14.29;98.01;99402.06;4862774;29;20238;-55
2022/10/11 07:28:51;;;;;;;0.00;0.00;;;;;;;14.43;96.27;99407.72;4871032;29;20237;-53
2022/10/11 07:31:20;;;;;;;0.00;0.00;;;;;;;14.52;97.76;99405.94;4874957;29;20303;-56
2022/10/11 07:33:46;;;;;;;0.00;0.00;;;;;;;14.60;96.14;99404.19;4873949;29;20238;-55
2022/10/11 07:36:14;;;;;;;0.00;0.00;;;;;;;14.67;96.58;99395.69;4880085;29;20249;-55
2022/10/11 07:38:41;;;;;;;0.00;0.00;;;;;;;14.76;96.73;99400.03;4877752;29;20597;-56
2022/10/11 07:41:10;;;;;;;0.00;0.00;;;;;;;14.79;94.20;99406.75;4874062;29;20707;-54
2022/10/11 07:43:37;;;;;;;0.00;0.00;;;;;;;14.85;93.66;99400.84;4870922;29;20627;-52
2022/10/11 07:46:03;;;;;;;0.00;0.00;;;;;;;14.60;93.74;99401.56;4874864;29;20238;-56
2022/10/11 07:48:30;;;;;;;0.00;0.00;;;;;;;14.82;93.71;99398.56;4863935;29;20295;-55
2022/10/11 07:51:03;;;;;;;0.00;0.00;;;;;;;14.96;92.19;99402.34;4865856;29;20240;-56
2022/10/11 07:53:29;;;;;;;0.00;0.00;;;;;;;14.82;94.07;99395.91;4863951;29;20729;-55
2022/10/11 07:55:59;;;;;;;0.00;0.00;;;;;;;14.71;94.29;99395.22;4866409;29;20652;-55
2022/10/11 07:58:27;;;;;;;0.00;0.00;;;;;;;14.72;95.10;99398.69;4886434;29;20237;-53
2022/10/11 08:00:54;;;;;;;0.00;0.00;;;;;;;14.59;95.17;99394.66;4872109;29;20238;-56
2022/10/11 08:03:21;;;;;;;0.00;0.00;;;;;;;14.82;93.71;99396.75;4880224;29;20265;-56
2022/10/11 08:05:47;;;;;;;0.00;0.00;;;;;;;14.49;94.41;99395.75;4873955;29;20285;-56
2022/10/11 08:08:14;;;;;;;0.00;0.00;;;;;;;14.79;94.03;99396.25;4875114;29;20304;-56
2022/10/11 08:10:41;;;;;;;0.00;0.00;;;;;;;14.83;93.96;99393.16;4874666;29;20290;-55
2022/10/11 08:13:08;;;;;;;0.00;0.00;;;;;;;14.90;93.32;99388.88;4877068;29;20228;-56
2022/10/11 08:15:36;;;;;;;0.00;0.00;;;;;;;14.76;94.04;99398.19;4875673;29;20240;-56
2022/10/11 08:18:03;;;;;;;0.00;0.00;;;;;;;14.88;93.52;99388.22;4876534;29;20226;-55
2022/10/11 08:20:31;;;;;;;0.00;0.00;;;;;;;14.61;95.86;99400.59;4877461;29;20333;-55
2022/10/11 08:22:58;;;;;;;0.00;0.00;;;;;;;14.69;94.39;99399.81;4869756;29;20253;-54
2022/10/11 08:25:25;;;;;;;0.00;0.00;;;;;;;14.29;96.87;99403.88;4868568;29;20279;-56
2022/10/11 08:27:51;;;;;;;0.00;0.00;;;;;;;14.09;99.22;99404.09;4876194;29;20249;-55
2022/10/11 08:30:18;;;;;;;0.00;0.00;;;;;;;13.85;100.00;99407.34;4869223;29;20284;-54
2022/10/11 08:32:46;;;;;;;0.00;0.00;;;;;;;13.98;100.00;99413.03;4865620;29;20294;-56
2022/10/11 08:35:13;;;;;;;0.00;0.00;;;;;;;13.82;100.00;99403.25;4878769;29;20736;-56
2022/10/11 08:37:39;;;;;;;0.00;0.00;;;;;;;13.90;100.00;99401.66;4870179;29;20236;-55
2022/10/11 08:40:07;;;;;;;0.00;0.00;;;;;;;13.93;100.00;99393.50;4873675;29;20565;-56
2022/10/11 08:42:38;;;;;;;0.00;0.00;;;;;;;13.97;100.00;99397.44;4872950;29;20645;-53
2022/10/11 08:45:10;;;;;;;0.00;0.00;;;;;;;14.10;99.64;99404.91;4871995;29;20714;-55
2022/10/11 08:47:39;;;;;;;0.00;0.00;;;;;;;14.12;99.04;99401.16;4865293;29;20632;-54
2022/10/11 08:50:15;;;;;;;25.43;14.50;;;;;;;14.12;100.00;99401.16;4873851;29;20318;-56
2022/10/11 08:52:46;;;;;;;27.37;15.20;;;;;;;14.06;99.42;99406.19;4865006;29;20268;-55
2022/10/11 08:55:19;;;;;;;22.77;14.10;;;;;;;14.05;100.00;99409.78;4865914;29;20240;-57
2022/10/11 08:57:50;;;;;;;25.47;15.20;;;;;;;14.25;99.44;99410.44;4870943;29;20239;-55
2022/10/11 09:00:20;;;;;;;23.03;15.00;;;;;;;14.36;97.98;99417.22;4881073;29;20240;-55
2022/10/11 09:02:55;;;;;;;25.73;14.97;;;;;;;14.44;97.34;99418.06;4857326;29;20270;-56
2022/10/11 09:05:27;;;;;;;29.47;14.43;;;;;;;14.34;97.00;99419.97;4872058;29;20896;-56
2022/10/11 09:08:01;;;;;;;23.50;14.33;;;;;;;14.25;97.36;99424.38;4876093;29;20240;-57
2022/10/11 09:10:56;;;;;;;28.47;14.00;;;;;;;14.17;96.70;99416.44;4868096;29;20328;-57
2022/10/11 09:13:41;;;;;;;27.30;13.80;;;;;;;14.41;96.79;99423.63;4871852;29;20236;-57
2022/10/11 09:16:19;;;;;;;28.70;14.70;;;;;;;14.51;96.92;99420.06;4866187;29;20248;-57
2022/10/11 09:19:00;;;;;;;0.00;0.00;;;;;;;14.59;95.41;99418.31;4871448;29;20244;-54
2022/10/11 09:21:37;;;;;;;0.00;0.00;;;;;;;14.41;95.14;99417.56;4875305;29;20303;-55
2022/10/11 09:24:30;;;;;;;0.00;0.00;;;;;;;14.75;94.69;99416.78;4871091;29;20704;-53
2022/10/11 09:26:58;;;;;;;0.00;0.00;;;;;;;14.90;93.91;99422.22;4868254;29;20244;-55
2022/10/11 09:29:40;;;;;;;0.00;0.00;;;;;;;14.93;92.43;99414.03;4868376;29;20250;-55
2022/10/11 09:32:13;;;;;;;0.00;0.00;;;;;;;15.19;91.58;99413.13;4870553;29;20244;-56
2022/10/11 09:34:40;;;;;;;0.00;0.00;;;;;;;15.18;90.35;99417.53;4870107;29;20244;-53
2022/10/11 09:37:19;;;;;;;0.00;0.00;;;;;;;15.33;89.94;99403.75;4870339;29;20241;-55
2022/10/11 09:39:50;;;;;;;0.00;0.00;;;;;;;15.15;90.32;99412.59;4874750;29;20586;-56
2022/10/11 09:42:16;;;;;;;0.00;0.00;;;;;;;15.01;91.42;99411.44;4869382;29;20285;-55
2022/10/11 09:44:46;;;;;;;0.00;0.00;;;;;;;15.37;89.61;99407.72;4866745;29;20245;-54
2022/10/11 09:47:16;;;;;;;0.00;0.00;;;;;;;15.46;88.88;99409.38;4870752;29;20892;-55
2022/10/11 09:49:48;;;;;;;0.00;0.00;;;;;;;15.64;87.19;99411.03;4874263;29;20242;-56
2022/10/11 09:52:22;;;;;;;0.00;0.00;;;;;;;15.44;88.62;99411.34;4873086;29;20644;-52
2022/10/11 09:54:51;;;;;;;0.00;0.00;;;;;;;15.48;87.96;99417.09;4871291;29;20552;-54
2022/10/11 09:57:20;;;;;;;0.00;0.00;;;;;;;15.12;87.17;99420.81;4879163;29;20348;-56
2022/10/11 09:59:59;;;;;;;0.00;0.00;;;;;;;15.47;87.59;99415.44;4875087;29;20244;-54
2022/10/11 10:02:26;;;;;;;0.00;0.00;;;;;;;14.98;88.96;99418.78;4868556;29;20825;-55
2022/10/11 10:05:00;;;;;;;0.00;0.00;;;;;;;15.10;89.25;99424.59;4878394;29;20736;-55
2022/10/11 10:07:30;;;;;;;0.00;0.00;;;;;;;15.04;91.08;99429.50;4873844;29;20644;-54
2022/10/11 10:09:57;;;;;;;0.00;0.00;;;;;;;15.23;89.08;99424.13;4875774;29;20298;-55
2022/10/11 10:12:27;;;;;;;0.00;0.00;;;;;;;14.99;89.94;99429.16;4874512;29;20355;-52
2022/10/11 10:15:05;;;;;;;0.00;0.00;;;;;;;15.18;89.36;99422.81;4876512;29;20307;-55
2022/10/11 10:17:32;;;;;;;0.00;0.00;;;;;;;15.03;89.21;99429.66;4876900;29;20319;-53
2022/10/11 10:20:00;;;;;;;0.00;0.00;;;;;;;15.37;88.71;99418.22;4880232;29;20297;-56
2022/10/11 10:22:30;;;;;;;0.00;0.00;;;;;;;15.33;87.72;99428.28;4877649;29;20234;-53
2022/10/11 10:24:59;;;;;;;0.00;0.00;;;;;;;15.34;88.99;99421.19;4871387;29;20293;-56
2022/10/11 10:27:28;;;;;;;0.00;0.00;;;;;;;15.29;88.42;99423.47;4863143;29;20284;-55
2022/10/11 10:30:21;;;;;;;0.00;0.00;;;;;;;15.41;87.46;99422.19;4873348;29;20700;-56
2022/10/11 10:32:54;;;;;;;0.00;0.00;;;;;;;15.50;86.48;99415.94;4871292;29;20615;-57
2022/10/11 10:35:32;;;;;;;0.00;0.00;;;;;;;15.62;86.51;99428.78;4869442;29;20233;-54
2022/10/11 10:38:15;;;;;;;0.00;0.00;;;;;;;15.78;86.16;99428.78;4863829;29;20246;-55
2022/10/11 10:40:46;;;;;;;0.00;0.00;;;;;;;16.04;88.00;99432.25;4862349;29;20244;-55
2022/10/11 10:43:17;;;;;;;0.00;0.00;;;;;;;16.18;85.40;99431.56;4868208;29;20237;-53
2022/10/11 10:46:09;;;;;;;0.00;0.00;;;;;;;16.34;84.59;99435.97;4867423;29;20241;-56
2022/10/11 10:48:43;;;;;;;0.00;0.00;;;;;;;16.33;80.79;99431.69;4870992;29;20233;-55
2022/10/11 10:51:21;;;;;;;0.00;0.00;;;;;;;16.14;81.99;99437.34;4871792;29;20295;-56
2022/10/11 10:53:59;;;;;;;0.00;0.00;;;;;;;16.33;81.79;99429.06;4873531;29;20246;-55
2022/10/11 10:56:32;;;;;;;0.00;0.00;;;;;;;16.49;81.42;99437.91;4870072;29;20321;-56
2022/10/11 10:59:09;;;;;;;0.00;0.00;;;;;;;16.68;80.36;99444.59;4877007;29;20244;-57
2022/10/11 11:01:47;;;;;;;0.00;0.00;;;;;;;16.91;78.21;99434.16;4874901;29;20656;-57
2022/10/11 11:04:26;;;;;;;0.00;0.00;;;;;;;16.93;78.30;99426.88;4875415;29;20731;-55
2022/10/11 11:06:57;;;;;;;0.00;0.00;;;;;;;17.20;76.39;99437.16;4872325;29;20239;-56
2022/10/11 11:09:32;;;;;;;0.00;0.00;;;;;;;17.28;75.66;99437.09;4877477;29;20610;-55
2022/10/11 11:12:11;;;;;;;0.00;0.00;;;;;;;17.53;76.37;99436.91;4874686;29;20339;-56
2022/10/11 11:14:47;;;;;;;0.00;0.00;;;;;;;17.33;75.50;99436.56;4872429;29;20274;-54
2022/10/11 11:17:23;;;;;;;0.00;0.00;;;;;;;17.40;73.34;99437.50;4872857;29;20700;-56
2022/10/11 11:20:03;;;;;;;0.00;0.00;;;;;;;17.56;71.93;99437.41;4868797;29;20722;-55
2022/10/11 11:22:40;;;;;;;0.00;0.00;;;;;;;17.71;72.95;99426.88;4885400;29;20286;-54
2022/10/11 11:25:22;;;;;;;0.00;0.00;;;;;;;17.56;73.87;99424.19;4877578;29;20742;-57
2022/10/11 11:27:58;;;;;;;0.00;0.00;;;;;;;17.79;74.32;99431.28;4875587;29;20236;-56
2022/10/11 11:30:36;;;;;;;0.00;0.00;;;;;;;17.59;72.99;99430.94;4865617;29;20298;-54
2022/10/11 11:33:11;;;;;;;0.00;0.00;;;;;;;17.87;74.13;99434.88;4871721;29;20301;-56
2022/10/11 11:35:42;;;;;;;0.00;0.00;;;;;;;18.00;72.25;99437.75;4868458;29;20305;-58
2022/10/11 11:38:14;;;;;;;0.00;0.00;;;;;;;17.80;74.28;99427.66;4867326;29;20238;-58
2022/10/11 11:40:46;;;;;;;0.00;0.00;;;;;;;17.87;73.32;99426.94;4866561;29;20236;-57